sensor_id;sensor_type;location;lat;lon;timestamp;P1;durP1;ratioP1;P2;durP2;ratioP2
65162;SDS011;51751;55.714;37.436;2022-09-02T00:01:14;1.20;;;0.65;;
65162;SDS011;51751;55.714;37.436;2022-09-02T00:03:40;1.02;;;0.65;;
65162;SDS011;51751;55.714;37.436;2022-09-02T00:06:07;1.95;;;0.50;;
65162;SDS011;51751;55.714;37.436;2022-09-02T00:08:33;0.70;;;0.57;;
65162;SDS011;51751;55.714;37.436;2022-09-02T00:10:59;2.20;;;0.60;;
65162;SDS011;51751;55.714;37.436;2022-09-02T00:13:28;2.63;;;0.60;;
65162;SDS011;51751;55.714;37.436;2022-09-02T00:15:54;0.13;;;0.13;;
65162;SDS011;51751;55.714;37.436;2022-09-02T00:18:21;1.02;;;0.50;;
65162;SDS011;51751;55.714;37.436;2022-09-02T00:20:49;0.32;;;0.32;;
65162;SDS011;51751;55.714;37.436;2022-09-02T00:23:15;4.97;;;0.60;;
65162;SDS011;51751;55.714;37.436;2022-09-02T00:25:41;6.82;;;0.95;;
65162;SDS011;51751;55.714;37.436;2022-09-02T00:28:09;0.52;;;0.50;;
65162;SDS011;51751;55.714;37.436;2022-09-02T00:30:35;4.45;;;0.40;;
65162;SDS011;51751;55.714;37.436;2022-09-02T00:33:02;0.43;;;0.43;;
65162;SDS011;51751;55.714;37.436;2022-09-02T00:35:29;0.73;;;0.43;;
65162;SDS011;51751;55.714;37.436;2022-09-02T00:37:55;0.40;;;0.30;;
65162;SDS011;51751;55.714;37.436;2022-09-02T00:40:22;0.45;;;0.40;;
65162;SDS011;51751;55.714;37.436;2022-09-02T00:42:48;1.05;;;0.47;;
65162;SDS011;51751;55.714;37.436;2022-09-02T00:45:15;0.70;;;0.60;;
65162;SDS011;51751;55.714;37.436;2022-09-02T00:47:43;0.35;;;0.30;;
65162;SDS011;51751;55.714;37.436;2022-09-02T00:50:10;0.38;;;0.38;;
65162;SDS011;51751;55.714;37.436;2022-09-02T00:52:42;0.30;;;0.28;;
65162;SDS011;51751;55.714;37.436;2022-09-02T00:57:39;0.35;;;0.28;;
65162;SDS011;51751;55.714;37.436;2022-09-02T01:03:15;0.30;;;0.30;;
65162;SDS011;51751;55.714;37.436;2022-09-02T01:05:46;0.38;;;0.38;;
65162;SDS011;51751;55.714;37.436;2022-09-02T01:08:15;0.30;;;0.30;;
65162;SDS011;51751;55.714;37.436;2022-09-02T01:10:45;0.90;;;0.57;;
65162;SDS011;51751;55.714;37.436;2022-09-02T01:13:14;0.80;;;0.43;;
65162;SDS011;51751;55.714;37.436;2022-09-02T01:15:43;1.27;;;0.38;;
65162;SDS011;51751;55.714;37.436;2022-09-02T01:18:15;1.13;;;0.45;;
65162;SDS011;51751;55.714;37.436;2022-09-02T01:20:43;0.95;;;0.40;;
65162;SDS011;51751;55.714;37.436;2022-09-02T01:23:18;0.80;;;0.40;;
65162;SDS011;51751;55.714;37.436;2022-09-02T01:25:44;1.08;;;0.40;;
65162;SDS011;51751;55.714;37.436;2022-09-02T01:28:12;0.32;;;0.32;;
65162;SDS011;51751;55.714;37.436;2022-09-02T01:30:50;0.50;;;0.50;;
65162;SDS011;51751;55.714;37.436;2022-09-02T01:33:17;0.30;;;0.30;;
65162;SDS011;51751;55.714;37.436;2022-09-02T01:35:43;1.17;;;0.40;;
65162;SDS011;51751;55.714;37.436;2022-09-02T01:38:10;1.25;;;0.50;;
65162;SDS011;51751;55.714;37.436;2022-09-02T01:40:40;0.80;;;0.40;;
65162;SDS011;51751;55.714;37.436;2022-09-02T01:43:07;0.88;;;0.30;;
65162;SDS011;51751;55.714;37.436;2022-09-02T01:45:36;0.38;;;0.38;;
65162;SDS011;51751;55.714;37.436;2022-09-02T01:48:06;0.30;;;0.30;;
65162;SDS011;51751;55.714;37.436;2022-09-02T01:50:35;0.50;;;0.50;;
65162;SDS011;51751;55.714;37.436;2022-09-02T01:53:02;1.58;;;0.50;;
65162;SDS011;51751;55.714;37.436;2022-09-02T01:55:31;1.70;;;0.40;;
65162;SDS011;51751;55.714;37.436;2022-09-02T01:57:57;0.40;;;0.40;;
65162;SDS011;51751;55.714;37.436;2022-09-02T02:00:24;0.32;;;0.32;;
65162;SDS011;51751;55.714;37.436;2022-09-02T02:02:54;1.77;;;0.50;;
65162;SDS011;51751;55.714;37.436;2022-09-02T02:05:23;0.95;;;0.60;;
65162;SDS011;51751;55.714;37.436;2022-09-02T02:07:50;2.80;;;0.60;;
65162;SDS011;51751;55.714;37.436;2022-09-02T02:10:19;0.40;;;0.40;;
65162;SDS011;51751;55.714;37.436;2022-09-02T02:12:49;3.63;;;0.60;;
65162;SDS011;51751;55.714;37.436;2022-09-02T02:15:20;0.50;;;0.50;;
65162;SDS011;51751;55.714;37.436;2022-09-02T02:17:47;0.85;;;0.50;;
65162;SDS011;51751;55.714;37.436;2022-09-02T02:20:17;0.50;;;0.50;;
65162;SDS011;51751;55.714;37.436;2022-09-02T02:22:44;0.47;;;0.40;;
65162;SDS011;51751;55.714;37.436;2022-09-02T02:25:12;0.40;;;0.40;;
65162;SDS011;51751;55.714;37.436;2022-09-02T02:27:42;0.40;;;0.40;;
65162;SDS011;51751;55.714;37.436;2022-09-02T02:30:08;1.38;;;0.50;;
65162;SDS011;51751;55.714;37.436;2022-09-02T02:32:36;0.30;;;0.30;;
65162;SDS011;51751;55.714;37.436;2022-09-02T02:35:02;0.43;;;0.30;;
65162;SDS011;51751;55.714;37.436;2022-09-02T02:37:30;0.20;;;0.20;;
65162;SDS011;51751;55.714;37.436;2022-09-02T02:40:09;0.40;;;0.40;;
65162;SDS011;51751;55.714;37.436;2022-09-02T02:42:39;0.22;;;0.22;;
65162;SDS011;51751;55.714;37.436;2022-09-02T02:45:05;0.50;;;0.50;;
65162;SDS011;51751;55.714;37.436;2022-09-02T02:47:39;0.70;;;0.32;;
65162;SDS011;51751;55.714;37.436;2022-09-02T02:50:09;1.45;;;0.50;;
65162;SDS011;51751;55.714;37.436;2022-09-02T02:52:40;0.40;;;0.40;;
65162;SDS011;51751;55.714;37.436;2022-09-02T02:55:24;0.30;;;0.30;;
65162;SDS011;51751;55.714;37.436;2022-09-02T02:57:55;0.30;;;0.30;;
65162;SDS011;51751;55.714;37.436;2022-09-02T03:00:39;2.55;;;0.40;;
65162;SDS011;51751;55.714;37.436;2022-09-02T03:03:09;0.38;;;0.38;;
65162;SDS011;51751;55.714;37.436;2022-09-02T03:05:37;0.50;;;0.50;;
65162;SDS011;51751;55.714;37.436;2022-09-02T03:08:05;2.65;;;0.70;;
65162;SDS011;51751;55.714;37.436;2022-09-02T03:10:33;0.70;;;0.50;;
65162;SDS011;51751;55.714;37.436;2022-09-02T03:12:59;0.57;;;0.57;;
65162;SDS011;51751;55.714;37.436;2022-09-02T03:15:26;1.25;;;0.43;;
65162;SDS011;51751;55.714;37.436;2022-09-02T03:17:58;0.40;;;0.40;;
65162;SDS011;51751;55.714;37.436;2022-09-02T03:20:24;0.40;;;0.40;;
65162;SDS011;51751;55.714;37.436;2022-09-02T03:22:59;0.28;;;0.20;;
65162;SDS011;51751;55.714;37.436;2022-09-02T03:25:27;0.40;;;0.40;;
65162;SDS011;51751;55.714;37.436;2022-09-02T03:27:55;0.47;;;0.47;;
65162;SDS011;51751;55.714;37.436;2022-09-02T03:30:22;0.70;;;0.43;;
65162;SDS011;51751;55.714;37.436;2022-09-02T03:32:54;0.50;;;0.50;;
65162;SDS011;51751;55.714;37.436;2022-09-02T03:35:22;0.40;;;0.40;;
65162;SDS011;51751;55.714;37.436;2022-09-02T03:37:49;0.52;;;0.52;;
65162;SDS011;51751;55.714;37.436;2022-09-02T03:40:24;0.30;;;0.30;;
65162;SDS011;51751;55.714;37.436;2022-09-02T03:42:53;0.47;;;0.40;;
65162;SDS011;51751;55.714;37.436;2022-09-02T03:45:20;0.55;;;0.43;;
65162;SDS011;51751;55.714;37.436;2022-09-02T03:47:47;0.60;;;0.60;;
65162;SDS011;51751;55.714;37.436;2022-09-02T03:50:28;0.45;;;0.30;;
65162;SDS011;51751;55.714;37.436;2022-09-02T03:52:56;1.73;;;0.35;;
65162;SDS011;51751;55.714;37.436;2022-09-02T03:55:24;1.67;;;0.60;;
65162;SDS011;51751;55.714;37.436;2022-09-02T03:57:51;1.83;;;0.75;;
65162;SDS011;51751;55.714;37.436;2022-09-02T04:00:18;0.52;;;0.52;;
65162;SDS011;51751;55.714;37.436;2022-09-02T04:03:14;4.90;;;0.88;;
65162;SDS011;51751;55.714;37.436;2022-09-02T04:05:44;2.35;;;0.63;;
65162;SDS011;51751;55.714;37.436;2022-09-02T04:08:14;3.50;;;0.75;;
65162;SDS011;51751;55.714;37.436;2022-09-02T04:10:40;2.17;;;1.27;;
65162;SDS011;51751;55.714;37.436;2022-09-02T04:16:04;1.13;;;0.60;;
65162;SDS011;51751;55.714;37.436;2022-09-02T04:18:31;2.70;;;0.45;;
65162;SDS011;51751;55.714;37.436;2022-09-02T04:20:59;0.57;;;0.32;;
65162;SDS011;51751;55.714;37.436;2022-09-02T04:23:28;0.38;;;0.38;;
65162;SDS011;51751;55.714;37.436;2022-09-02T04:25:54;1.00;;;0.40;;
65162;SDS011;51751;55.714;37.436;2022-09-02T04:28:27;0.98;;;0.35;;
65162;SDS011;51751;55.714;37.436;2022-09-02T04:30:54;6.18;;;0.40;;
65162;SDS011;51751;55.714;37.436;2022-09-02T04:33:20;2.35;;;0.40;;
65162;SDS011;51751;55.714;37.436;2022-09-02T04:35:46;0.20;;;0.20;;
65162;SDS011;51751;55.714;37.436;2022-09-02T04:38:15;2.10;;;0.20;;
65162;SDS011;51751;55.714;37.436;2022-09-02T04:40:42;0.75;;;0.40;;
65162;SDS011;51751;55.714;37.436;2022-09-02T04:43:10;0.52;;;0.52;;
65162;SDS011;51751;55.714;37.436;2022-09-02T04:45:41;0.28;;;0.28;;
65162;SDS011;51751;55.714;37.436;2022-09-02T04:48:13;0.30;;;0.30;;
65162;SDS011;51751;55.714;37.436;2022-09-02T04:50:40;1.05;;;0.52;;
65162;SDS011;51751;55.714;37.436;2022-09-02T04:53:18;0.32;;;0.32;;
65162;SDS011;51751;55.714;37.436;2022-09-02T04:55:45;0.30;;;0.30;;
65162;SDS011;51751;55.714;37.436;2022-09-02T04:58:13;0.73;;;0.40;;
65162;SDS011;51751;55.714;37.436;2022-09-02T05:00:40;1.45;;;0.50;;
65162;SDS011;51751;55.714;37.436;2022-09-02T05:03:10;0.45;;;0.40;;
65162;SDS011;51751;55.714;37.436;2022-09-02T05:05:36;0.45;;;0.40;;
65162;SDS011;51751;55.714;37.436;2022-09-02T05:08:04;1.75;;;0.30;;
65162;SDS011;51751;55.714;37.436;2022-09-02T05:10:32;0.52;;;0.40;;
65162;SDS011;51751;55.714;37.436;2022-09-02T05:12:58;0.22;;;0.22;;
65162;SDS011;51751;55.714;37.436;2022-09-02T05:15:48;0.30;;;0.30;;
65162;SDS011;51751;55.714;37.436;2022-09-02T05:18:15;0.43;;;0.25;;
65162;SDS011;51751;55.714;37.436;2022-09-02T05:20:46;0.30;;;0.30;;
65162;SDS011;51751;55.714;37.436;2022-09-02T05:23:14;0.20;;;0.20;;
65162;SDS011;51751;55.714;37.436;2022-09-02T05:25:48;1.27;;;0.20;;
65162;SDS011;51751;55.714;37.436;2022-09-02T05:28:15;0.30;;;0.30;;
65162;SDS011;51751;55.714;37.436;2022-09-02T05:30:42;0.30;;;0.30;;
65162;SDS011;51751;55.714;37.436;2022-09-02T05:33:10;0.90;;;0.77;;
65162;SDS011;51751;55.714;37.436;2022-09-02T05:35:41;0.47;;;0.47;;
65162;SDS011;51751;55.714;37.436;2022-09-02T05:38:11;1.48;;;0.40;;
65162;SDS011;51751;55.714;37.436;2022-09-02T05:40:39;2.72;;;0.60;;
65162;SDS011;51751;55.714;37.436;2022-09-02T05:43:07;3.38;;;0.60;;
65162;SDS011;51751;55.714;37.436;2022-09-02T05:45:36;1.10;;;0.22;;
65162;SDS011;51751;55.714;37.436;2022-09-02T05:48:04;0.95;;;0.52;;
65162;SDS011;51751;55.714;37.436;2022-09-02T05:50:54;0.30;;;0.20;;
65162;SDS011;51751;55.714;37.436;2022-09-02T05:53:20;0.70;;;0.20;;
65162;SDS011;51751;55.714;37.436;2022-09-02T05:55:47;0.60;;;0.60;;
65162;SDS011;51751;55.714;37.436;2022-09-02T05:58:13;1.42;;;0.38;;
65162;SDS011;51751;55.714;37.436;2022-09-02T06:00:39;0.80;;;0.32;;
65162;SDS011;51751;55.714;37.436;2022-09-02T06:03:09;0.50;;;0.50;;
65162;SDS011;51751;55.714;37.436;2022-09-02T06:05:36;2.20;;;0.55;;
65162;SDS011;51751;55.714;37.436;2022-09-02T06:08:21;0.30;;;0.30;;
65162;SDS011;51751;55.714;37.436;2022-09-02T06:10:47;1.30;;;0.50;;
65162;SDS011;51751;55.714;37.436;2022-09-02T06:13:17;0.70;;;0.20;;
65162;SDS011;51751;55.714;37.436;2022-09-02T06:15:48;0.70;;;0.40;;
65162;SDS011;51751;55.714;37.436;2022-09-02T06:18:17;2.17;;;0.40;;
65162;SDS011;51751;55.714;37.436;2022-09-02T06:20:47;1.20;;;0.40;;
65162;SDS011;51751;55.714;37.436;2022-09-02T06:23:18;1.08;;;0.45;;
65162;SDS011;51751;55.714;37.436;2022-09-02T06:25:50;1.65;;;0.55;;
65162;SDS011;51751;55.714;37.436;2022-09-02T06:28:17;0.68;;;0.40;;
65162;SDS011;51751;55.714;37.436;2022-09-02T06:30:45;0.77;;;0.40;;
65162;SDS011;51751;55.714;37.436;2022-09-02T06:33:15;1.00;;;0.50;;
65162;SDS011;51751;55.714;37.436;2022-09-02T06:35:43;5.75;;;0.55;;
65162;SDS011;51751;55.714;37.436;2022-09-02T06:38:11;0.80;;;0.60;;
65162;SDS011;51751;55.714;37.436;2022-09-02T06:40:47;2.30;;;0.63;;
65162;SDS011;51751;55.714;37.436;2022-09-02T06:43:20;0.20;;;0.20;;
65162;SDS011;51751;55.714;37.436;2022-09-02T06:46:06;1.35;;;0.40;;
65162;SDS011;51751;55.714;37.436;2022-09-02T06:48:33;1.02;;;0.60;;
65162;SDS011;51751;55.714;37.436;2022-09-02T06:51:00;4.07;;;0.50;;
65162;SDS011;51751;55.714;37.436;2022-09-02T06:53:26;3.25;;;0.20;;
65162;SDS011;51751;55.714;37.436;2022-09-02T06:55:52;0.85;;;0.45;;
65162;SDS011;51751;55.714;37.436;2022-09-02T06:58:20;0.50;;;0.40;;
65162;SDS011;51751;55.714;37.436;2022-09-02T07:00:46;1.45;;;0.63;;
65162;SDS011;51751;55.714;37.436;2022-09-02T07:03:23;2.47;;;0.50;;
65162;SDS011;51751;55.714;37.436;2022-09-02T07:06:09;4.97;;;0.52;;
65162;SDS011;51751;55.714;37.436;2022-09-02T07:08:41;0.45;;;0.40;;
65162;SDS011;51751;55.714;37.436;2022-09-02T07:11:14;0.30;;;0.20;;
65162;SDS011;51751;55.714;37.436;2022-09-02T07:13:46;2.70;;;0.30;;
65162;SDS011;51751;55.714;37.436;2022-09-02T07:16:15;1.67;;;0.32;;
65162;SDS011;51751;55.714;37.436;2022-09-02T07:18:45;0.88;;;0.52;;
65162;SDS011;51751;55.714;37.436;2022-09-02T07:21:12;5.50;;;0.60;;
65162;SDS011;51751;55.714;37.436;2022-09-02T07:23:40;0.88;;;0.47;;
65162;SDS011;51751;55.714;37.436;2022-09-02T07:26:11;5.15;;;0.43;;
65162;SDS011;51751;55.714;37.436;2022-09-02T07:28:39;0.60;;;0.60;;
65162;SDS011;51751;55.714;37.436;2022-09-02T07:31:11;0.57;;;0.45;;
65162;SDS011;51751;55.714;37.436;2022-09-02T07:33:48;0.40;;;0.40;;
65162;SDS011;51751;55.714;37.436;2022-09-02T07:36:14;0.40;;;0.40;;
65162;SDS011;51751;55.714;37.436;2022-09-02T07:38:40;2.83;;;0.70;;
65162;SDS011;51751;55.714;37.436;2022-09-02T07:41:09;3.20;;;0.70;;
65162;SDS011;51751;55.714;37.436;2022-09-02T07:43:37;3.17;;;0.60;;
65162;SDS011;51751;55.714;37.436;2022-09-02T07:46:04;6.20;;;0.80;;
65162;SDS011;51751;55.714;37.436;2022-09-02T07:48:31;4.75;;;1.00;;
65162;SDS011;51751;55.714;37.436;2022-09-02T07:50:59;1.35;;;0.80;;
65162;SDS011;51751;55.714;37.436;2022-09-02T07:53:30;0.40;;;0.30;;
65162;SDS011;51751;55.714;37.436;2022-09-02T07:55:58;0.88;;;0.80;;
65162;SDS011;51751;55.714;37.436;2022-09-02T07:58:26;1.88;;;0.50;;
65162;SDS011;51751;55.714;37.436;2022-09-02T08:00:55;0.95;;;0.70;;
65162;SDS011;51751;55.714;37.436;2022-09-02T08:03:23;1.48;;;0.60;;
65162;SDS011;51751;55.714;37.436;2022-09-02T08:05:53;3.05;;;0.68;;
65162;SDS011;51751;55.714;37.436;2022-09-02T08:08:24;1.30;;;0.63;;
65162;SDS011;51751;55.714;37.436;2022-09-02T08:10:51;0.60;;;0.45;;
65162;SDS011;51751;55.714;37.436;2022-09-02T08:13:17;1.83;;;0.70;;
65162;SDS011;51751;55.714;37.436;2022-09-02T08:15:43;1.27;;;0.80;;
65162;SDS011;51751;55.714;37.436;2022-09-02T08:18:10;0.40;;;0.40;;
65162;SDS011;51751;55.714;37.436;2022-09-02T08:20:57;1.77;;;0.30;;
65162;SDS011;51751;55.714;37.436;2022-09-02T08:23:24;0.80;;;0.50;;
65162;SDS011;51751;55.714;37.436;2022-09-02T08:25:49;1.77;;;0.50;;
65162;SDS011;51751;55.714;37.436;2022-09-02T08:28:19;1.48;;;0.60;;
65162;SDS011;51751;55.714;37.436;2022-09-02T08:30:53;4.55;;;1.98;;
65162;SDS011;51751;55.714;37.436;2022-09-02T08:33:19;6.78;;;2.15;;
65162;SDS011;51751;55.714;37.436;2022-09-02T08:35:51;2.08;;;0.65;;
65162;SDS011;51751;55.714;37.436;2022-09-02T08:38:21;1.23;;;1.00;;
65162;SDS011;51751;55.714;37.436;2022-09-02T08:40:47;2.05;;;0.60;;
65162;SDS011;51751;55.714;37.436;2022-09-02T08:43:34;0.50;;;0.50;;
65162;SDS011;51751;55.714;37.436;2022-09-02T08:46:04;1.42;;;0.68;;
65162;SDS011;51751;55.714;37.436;2022-09-02T08:52:03;1.48;;;0.65;;
65162;SDS011;51751;55.714;37.436;2022-09-02T08:56:47;1.60;;;0.60;;
65162;SDS011;51751;55.714;37.436;2022-09-02T08:59:25;4.32;;;0.80;;
65162;SDS011;51751;55.714;37.436;2022-09-02T09:18:49;2.05;;;0.50;;
65162;SDS011;51751;55.714;37.436;2022-09-02T09:21:25;7.43;;;0.50;;
65162;SDS011;51751;55.714;37.436;2022-09-02T09:23:55;0.93;;;0.40;;
65162;SDS011;51751;55.714;37.436;2022-09-02T09:26:27;1.35;;;0.32;;
65162;SDS011;51751;55.714;37.436;2022-09-02T09:28:56;0.40;;;0.28;;
65162;SDS011;51751;55.714;37.436;2022-09-02T09:31:27;0.47;;;0.43;;
65162;SDS011;51751;55.714;37.436;2022-09-02T09:41:47;8.50;;;3.70;;
65162;SDS011;51751;55.714;37.436;2022-09-02T09:44:27;7.97;;;4.18;;
65162;SDS011;51751;55.714;37.436;2022-09-02T09:47:09;6.70;;;2.00;;
65162;SDS011;51751;55.714;37.436;2022-09-02T09:49:46;4.05;;;1.63;;
65162;SDS011;51751;55.714;37.436;2022-09-02T09:52:23;1.30;;;1.17;;
65162;SDS011;51751;55.714;37.436;2022-09-02T09:57:32;2.13;;;1.73;;
65162;SDS011;51751;55.714;37.436;2022-09-02T10:00:01;0.50;;;0.50;;
65162;SDS011;51751;55.714;37.436;2022-09-02T10:02:44;1.50;;;0.57;;
65162;SDS011;51751;55.714;37.436;2022-09-02T10:07:53;0.30;;;0.30;;
65162;SDS011;51751;55.714;37.436;2022-09-02T10:10:28;6.05;;;0.60;;
65162;SDS011;51751;55.714;37.436;2022-09-02T10:13:15;0.50;;;0.50;;
65162;SDS011;51751;55.714;37.436;2022-09-02T10:26:57;3.67;;;0.60;;
65162;SDS011;51751;55.714;37.436;2022-09-02T10:30:05;0.13;;;0.13;;
65162;SDS011;51751;55.714;37.436;2022-09-02T10:40:36;2.08;;;0.40;;
65162;SDS011;51751;55.714;37.436;2022-09-02T10:46:07;1.38;;;0.30;;
65162;SDS011;51751;55.714;37.436;2022-09-02T10:48:41;2.30;;;0.63;;
65162;SDS011;51751;55.714;37.436;2022-09-02T10:51:41;4.00;;;0.90;;
65162;SDS011;51751;55.714;37.436;2022-09-02T10:54:37;2.67;;;0.50;;
65162;SDS011;51751;55.714;37.436;2022-09-02T10:57:12;1.33;;;0.40;;
65162;SDS011;51751;55.714;37.436;2022-09-02T11:02:20;1.83;;;0.55;;
65162;SDS011;51751;55.714;37.436;2022-09-02T11:04:54;0.30;;;0.30;;
65162;SDS011;51751;55.714;37.436;2022-09-02T11:07:52;0.22;;;0.22;;
65162;SDS011;51751;55.714;37.436;2022-09-02T11:10:33;1.15;;;0.20;;
65162;SDS011;51751;55.714;37.436;2022-09-02T11:13:10;0.60;;;0.60;;
65162;SDS011;51751;55.714;37.436;2022-09-02T11:15:44;2.30;;;0.63;;
65162;SDS011;51751;55.714;37.436;2022-09-02T11:23:33;1.85;;;0.28;;
65162;SDS011;51751;55.714;37.436;2022-09-02T11:26:04;1.80;;;0.45;;
65162;SDS011;51751;55.714;37.436;2022-09-02T11:36:19;0.88;;;0.70;;
65162;SDS011;51751;55.714;37.436;2022-09-02T11:38:57;1.15;;;0.57;;
65162;SDS011;51751;55.714;37.436;2022-09-02T11:46:46;0.55;;;0.50;;
65162;SDS011;51751;55.714;37.436;2022-09-02T11:52:23;2.15;;;0.50;;
65162;SDS011;51751;55.714;37.436;2022-09-02T11:55:04;1.50;;;0.38;;
65162;SDS011;51751;55.714;37.436;2022-09-02T11:57:51;0.90;;;0.47;;
65162;SDS011;51751;55.714;37.436;2022-09-02T12:01:05;4.68;;;0.60;;
65162;SDS011;51751;55.714;37.436;2022-09-02T12:03:24;0.63;;;0.55;;
65162;SDS011;51751;55.714;37.436;2022-09-02T12:11:02;2.30;;;0.80;;
65162;SDS011;51751;55.714;37.436;2022-09-02T12:21:20;0.25;;;0.25;;
65162;SDS011;51751;55.714;37.436;2022-09-02T12:26:19;2.78;;;0.82;;
65162;SDS011;51751;55.714;37.436;2022-09-02T12:28:46;0.90;;;0.90;;
65162;SDS011;51751;55.714;37.436;2022-09-02T12:36:54;2.00;;;0.57;;
65162;SDS011;51751;55.714;37.436;2022-09-02T12:41:55;2.67;;;1.10;;
65162;SDS011;51751;55.714;37.436;2022-09-02T12:44:42;0.82;;;0.80;;
65162;SDS011;51751;55.714;37.436;2022-09-02T12:50:27;1.38;;;0.40;;
65162;SDS011;51751;55.714;37.436;2022-09-02T12:53:34;9.77;;;0.80;;
65162;SDS011;51751;55.714;37.436;2022-09-02T12:56:04;1.55;;;0.60;;
65162;SDS011;51751;55.714;37.436;2022-09-02T12:58:45;3.00;;;0.90;;
65162;SDS011;51751;55.714;37.436;2022-09-02T13:01:28;0.40;;;0.40;;
65162;SDS011;51751;55.714;37.436;2022-09-02T13:06:56;3.72;;;0.63;;
65162;SDS011;51751;55.714;37.436;2022-09-02T13:32:01;1.92;;;0.80;;
65162;SDS011;51751;55.714;37.436;2022-09-02T13:34:53;3.42;;;0.70;;
65162;SDS011;51751;55.714;37.436;2022-09-02T13:42:48;0.52;;;0.52;;
65162;SDS011;51751;55.714;37.436;2022-09-02T13:45:18;1.00;;;0.50;;
65162;SDS011;51751;55.714;37.436;2022-09-02T13:47:52;2.80;;;0.80;;
65162;SDS011;51751;55.714;37.436;2022-09-02T13:50:21;2.75;;;0.80;;
65162;SDS011;51751;55.714;37.436;2022-09-02T13:52:50;1.63;;;1.10;;
65162;SDS011;51751;55.714;37.436;2022-09-02T13:55:20;1.80;;;0.75;;
65162;SDS011;51751;55.714;37.436;2022-09-02T14:00:42;1.70;;;0.68;;
65162;SDS011;51751;55.714;37.436;2022-09-02T14:03:09;0.90;;;0.80;;
65162;SDS011;51751;55.714;37.436;2022-09-02T14:05:39;1.17;;;0.80;;
65162;SDS011;51751;55.714;37.436;2022-09-02T14:08:06;0.82;;;0.60;;
65162;SDS011;51751;55.714;37.436;2022-09-02T14:10:37;2.40;;;0.60;;
65162;SDS011;51751;55.714;37.436;2022-09-02T14:13:08;3.33;;;0.70;;
65162;SDS011;51751;55.714;37.436;2022-09-02T14:15:38;1.10;;;0.40;;
65162;SDS011;51751;55.714;37.436;2022-09-02T14:20:33;2.17;;;0.82;;
65162;SDS011;51751;55.714;37.436;2022-09-02T14:23:00;5.88;;;0.88;;
65162;SDS011;51751;55.714;37.436;2022-09-02T14:25:36;1.25;;;0.70;;
65162;SDS011;51751;55.714;37.436;2022-09-02T14:28:17;2.53;;;0.70;;
65162;SDS011;51751;55.714;37.436;2022-09-02T14:30:53;2.35;;;0.60;;
65162;SDS011;51751;55.714;37.436;2022-09-02T14:36:45;2.30;;;1.13;;
65162;SDS011;51751;55.714;37.436;2022-09-02T14:38:50;1.05;;;0.90;;
65162;SDS011;51751;55.714;37.436;2022-09-02T14:41:21;1.33;;;0.73;;
65162;SDS011;51751;55.714;37.436;2022-09-02T14:43:56;5.15;;;1.00;;
65162;SDS011;51751;55.714;37.436;2022-09-02T14:49:09;1.85;;;0.93;;
65162;SDS011;51751;55.714;37.436;2022-09-02T14:51:46;1.52;;;1.08;;
65162;SDS011;51751;55.714;37.436;2022-09-02T14:57:04;2.05;;;0.73;;
65162;SDS011;51751;55.714;37.436;2022-09-02T14:59:31;0.90;;;0.80;;
65162;SDS011;51751;55.714;37.436;2022-09-02T15:02:03;1.90;;;1.10;;
65162;SDS011;51751;55.714;37.436;2022-09-02T15:04:29;1.77;;;1.10;;
65162;SDS011;51751;55.714;37.436;2022-09-02T15:06:59;2.38;;;0.70;;
65162;SDS011;51751;55.714;37.436;2022-09-02T15:09:25;2.03;;;0.70;;
65162;SDS011;51751;55.714;37.436;2022-09-02T15:11:54;1.63;;;1.30;;
65162;SDS011;51751;55.714;37.436;2022-09-02T15:14:23;3.83;;;0.80;;
65162;SDS011;51751;55.714;37.436;2022-09-02T15:16:49;2.13;;;0.85;;
65162;SDS011;51751;55.714;37.436;2022-09-02T15:19:16;1.02;;;0.80;;
65162;SDS011;51751;55.714;37.436;2022-09-02T15:21:44;1.45;;;0.90;;
65162;SDS011;51751;55.714;37.436;2022-09-02T15:24:10;1.17;;;0.70;;
65162;SDS011;51751;55.714;37.436;2022-09-02T15:26:36;2.25;;;1.00;;
65162;SDS011;51751;55.714;37.436;2022-09-02T15:29:02;1.38;;;0.90;;
65162;SDS011;51751;55.714;37.436;2022-09-02T15:31:28;3.05;;;0.98;;
65162;SDS011;51751;55.714;37.436;2022-09-02T15:33:55;1.15;;;0.90;;
65162;SDS011;51751;55.714;37.436;2022-09-02T15:36:21;1.10;;;0.82;;
65162;SDS011;51751;55.714;37.436;2022-09-02T15:38:49;3.42;;;0.95;;
65162;SDS011;51751;55.714;37.436;2022-09-02T15:41:16;2.83;;;1.10;;
65162;SDS011;51751;55.714;37.436;2022-09-02T15:43:47;2.55;;;0.80;;
65162;SDS011;51751;55.714;37.436;2022-09-02T15:46:15;1.38;;;1.00;;
65162;SDS011;51751;55.714;37.436;2022-09-02T15:48:45;1.65;;;0.93;;
65162;SDS011;51751;55.714;37.436;2022-09-02T15:51:15;1.50;;;1.00;;
65162;SDS011;51751;55.714;37.436;2022-09-02T15:53:42;1.05;;;0.75;;
65162;SDS011;51751;55.714;37.436;2022-09-02T15:56:14;2.70;;;1.10;;
65162;SDS011;51751;55.714;37.436;2022-09-02T15:58:42;2.67;;;1.02;;
65162;SDS011;51751;55.714;37.436;2022-09-02T16:01:10;1.90;;;0.82;;
65162;SDS011;51751;55.714;37.436;2022-09-02T16:03:37;2.47;;;1.00;;
65162;SDS011;51751;55.714;37.436;2022-09-02T16:06:09;3.38;;;1.10;;
65162;SDS011;51751;55.714;37.436;2022-09-02T16:08:38;4.30;;;1.08;;
65162;SDS011;51751;55.714;37.436;2022-09-02T16:11:07;2.30;;;1.85;;
65162;SDS011;51751;55.714;37.436;2022-09-02T16:13:34;1.10;;;1.00;;
65162;SDS011;51751;55.714;37.436;2022-09-02T16:16:07;2.28;;;1.30;;
65162;SDS011;51751;55.714;37.436;2022-09-02T16:18:35;1.48;;;1.20;;
65162;SDS011;51751;55.714;37.436;2022-09-02T16:21:02;2.55;;;1.13;;
65162;SDS011;51751;55.714;37.436;2022-09-02T16:23:29;2.67;;;1.38;;
65162;SDS011;51751;55.714;37.436;2022-09-02T16:26:07;2.92;;;1.15;;
65162;SDS011;51751;55.714;37.436;2022-09-02T16:28:57;4.28;;;1.25;;
65162;SDS011;51751;55.714;37.436;2022-09-02T16:31:25;1.60;;;1.20;;
65162;SDS011;51751;55.714;37.436;2022-09-02T16:33:59;2.38;;;1.40;;
65162;SDS011;51751;55.714;37.436;2022-09-02T16:36:27;2.78;;;1.33;;
65162;SDS011;51751;55.714;37.436;2022-09-02T16:38:54;3.42;;;1.20;;
65162;SDS011;51751;55.714;37.436;2022-09-02T16:41:21;3.88;;;1.45;;
65162;SDS011;51751;55.714;37.436;2022-09-02T16:43:50;2.33;;;1.20;;
65162;SDS011;51751;55.714;37.436;2022-09-02T16:46:16;2.90;;;1.27;;
65162;SDS011;51751;55.714;37.436;2022-09-02T16:48:42;1.60;;;1.02;;
65162;SDS011;51751;55.714;37.436;2022-09-02T16:51:08;2.35;;;1.00;;
65162;SDS011;51751;55.714;37.436;2022-09-02T16:53:34;1.10;;;0.90;;
65162;SDS011;51751;55.714;37.436;2022-09-02T16:56:01;1.30;;;0.88;;
65162;SDS011;51751;55.714;37.436;2022-09-02T16:58:30;8.25;;;2.42;;
65162;SDS011;51751;55.714;37.436;2022-09-02T17:00:58;4.00;;;1.45;;
65162;SDS011;51751;55.714;37.436;2022-09-02T17:03:30;2.95;;;1.23;;
65162;SDS011;51751;55.714;37.436;2022-09-02T17:05:57;2.65;;;1.10;;
65162;SDS011;51751;55.714;37.436;2022-09-02T17:08:23;5.85;;;1.40;;
65162;SDS011;51751;55.714;37.436;2022-09-02T17:10:49;2.30;;;1.30;;
65162;SDS011;51751;55.714;37.436;2022-09-02T17:13:15;3.00;;;1.25;;
65162;SDS011;51751;55.714;37.436;2022-09-02T17:15:41;3.67;;;1.30;;
65162;SDS011;51751;55.714;37.436;2022-09-02T17:18:08;2.35;;;1.13;;
65162;SDS011;51751;55.714;37.436;2022-09-02T17:20:34;2.47;;;1.20;;
65162;SDS011;51751;55.714;37.436;2022-09-02T17:23:18;2.65;;;1.30;;
65162;SDS011;51751;55.714;37.436;2022-09-02T17:25:45;2.40;;;1.40;;
65162;SDS011;51751;55.714;37.436;2022-09-02T17:28:10;3.05;;;1.20;;
65162;SDS011;51751;55.714;37.436;2022-09-02T17:30:36;2.08;;;1.30;;
65162;SDS011;51751;55.714;37.436;2022-09-02T17:33:05;3.67;;;1.30;;
65162;SDS011;51751;55.714;37.436;2022-09-02T17:35:31;2.95;;;1.00;;